createdAt,value
2022-12-18T00:13:28.537Z,21.30
2022-12-18T00:16:06.946Z,16.30
2022-12-18T00:18:40.800Z,23.00
2022-12-18T00:21:15.351Z,21.30
2022-12-18T00:23:49.096Z,22.30
2022-12-18T00:26:26.941Z,19.50
2022-12-18T00:29:04.202Z,21.70
2022-12-18T00:31:39.722Z,21.60
2022-12-18T00:34:14.517Z,22.60
2022-12-18T00:36:46.957Z,22.70
2022-12-18T00:39:22.262Z,21.30
2022-12-18T00:42:11.958Z,19.50
2022-12-18T00:44:44.427Z,19.60
2022-12-18T00:47:17.108Z,18.70
2022-12-18T00:49:49.850Z,19.20
2022-12-18T00:52:23.077Z,20.30
2022-12-18T00:55:00.698Z,19.30
2022-12-18T00:57:37.277Z,19.20
2022-12-18T01:00:13.138Z,16.00
2022-12-18T01:02:46.491Z,17.90
2022-12-18T01:05:22.127Z,17.70
2022-12-18T01:07:56.218Z,19.20
2022-12-18T01:10:30.880Z,18.60
2022-12-18T01:13:03.518Z,17.00
2022-12-18T01:15:36.198Z,16.90
2022-12-18T01:18:09.020Z,18.60
2022-12-18T01:20:42.728Z,14.50
2022-12-18T01:23:28.907Z,17.50
2022-12-18T01:26:06.367Z,17.90
2022-12-18T01:28:41.417Z,17.30
2022-12-18T01:31:22.007Z,17.60
2022-12-18T01:33:54.987Z,16.90
2022-12-18T01:36:30.197Z,18.40
2022-12-18T01:39:04.159Z,15.00
2022-12-18T01:41:51.811Z,17.60
2022-12-18T01:44:56.754Z,17.20
2022-12-18T01:47:33.257Z,18.80
2022-12-18T01:50:09.642Z,15.50
2022-12-18T01:52:49.120Z,17.50
2022-12-18T01:55:25.032Z,18.80
2022-12-18T01:58:00.415Z,18.10
2022-12-18T02:00:34.038Z,19.30
2022-12-18T02:03:07.152Z,17.50
2022-12-18T02:05:50.828Z,16.80
2022-12-18T02:08:29.261Z,16.10
2022-12-18T02:11:11.166Z,14.80
2022-12-18T02:13:49.067Z,18.40
2022-12-18T02:16:29.378Z,16.80
2022-12-18T02:19:07.977Z,16.30
2022-12-18T02:21:48.847Z,15.40
2022-12-18T02:24:37.640Z,16.10
2022-12-18T02:27:12.156Z,16.40
2022-12-18T02:29:57.598Z,17.00
2022-12-18T02:32:34.157Z,18.80
2022-12-18T02:35:10.137Z,18.60
2022-12-18T02:37:44.737Z,18.50
2022-12-18T02:40:19.988Z,20.10
2022-12-18T02:42:52.876Z,19.80
2022-12-18T02:45:26.108Z,18.40
2022-12-18T02:47:58.905Z,14.80
2022-12-18T02:50:38.288Z,13.40
2022-12-18T02:53:20.178Z,19.00
2022-12-18T02:56:02.223Z,18.60
2022-12-18T02:58:46.854Z,17.40
2022-12-18T03:01:34.763Z,18.20
2022-12-18T03:04:17.157Z,18.40
2022-12-18T03:06:53.346Z,18.90
2022-12-18T03:09:31.067Z,17.80
2022-12-18T03:12:26.427Z,19.70
2022-12-18T03:15:17.265Z,18.40
2022-12-18T03:17:53.897Z,16.40
2022-12-18T03:20:28.946Z,19.50
2022-12-18T03:23:07.046Z,21.50
2022-12-18T03:25:43.666Z,18.00
2022-12-18T03:28:20.511Z,19.40
2022-12-18T03:31:03.392Z,19.60
2022-12-18T03:33:41.540Z,20.70
2022-12-18T03:36:14.376Z,18.10
2022-12-18T03:38:48.118Z,18.60
2022-12-18T03:41:28.806Z,18.40
2022-12-18T03:44:29.907Z,17.90
2022-12-18T03:47:08.336Z,18.50
2022-12-18T03:49:50.752Z,19.50
2022-12-18T03:52:37.839Z,19.20
2022-12-18T03:55:14.677Z,18.60
2022-12-18T03:57:50.830Z,18.70
2022-12-18T04:00:25.468Z,18.00
2022-12-18T04:03:05.409Z,18.40
2022-12-18T04:05:46.464Z,16.40
2022-12-18T04:08:24.099Z,19.80
2022-12-18T04:11:08.045Z,17.70
2022-12-18T04:13:42.818Z,18.80
2022-12-18T04:16:22.421Z,20.20
2022-12-18T04:18:58.920Z,19.60
2022-12-18T04:21:33.606Z,19.50
2022-12-18T04:24:07.861Z,19.90
2022-12-18T04:26:43.109Z,19.60
2022-12-18T04:29:21.358Z,19.30
2022-12-18T04:31:55.979Z,18.50
2022-12-18T04:34:30.161Z,18.70
2022-12-18T04:37:05.274Z,22.10
2022-12-18T04:39:39.869Z,18.20
2022-12-18T04:42:18.389Z,19.50
2022-12-18T04:44:52.043Z,18.60
2022-12-18T04:49:57.780Z,16.00
2022-12-18T04:55:06.100Z,16.20
2022-12-18T04:57:40.214Z,18.00
2022-12-18T05:00:17.139Z,18.80
2022-12-18T05:02:51.859Z,17.10
2022-12-18T05:05:25.332Z,18.10
2022-12-18T05:07:59.047Z,17.80
2022-12-18T05:10:38.094Z,16.20
2022-12-18T05:13:13.101Z,17.20
2022-12-18T05:15:54.461Z,17.60
2022-12-18T05:18:29.444Z,19.10
2022-12-18T05:21:06.152Z,17.20
2022-12-18T05:23:43.004Z,18.40
2022-12-18T05:26:20.711Z,17.00
2022-12-18T05:28:57.923Z,16.60
2022-12-18T05:31:35.913Z,16.60
2022-12-18T05:34:29.302Z,17.80
2022-12-18T05:37:02.969Z,17.30
2022-12-18T05:39:37.077Z,18.40
2022-12-18T05:42:10.660Z,18.60
2022-12-18T05:47:16.859Z,17.60
2022-12-18T05:49:51.084Z,18.30
2022-12-18T05:52:24.797Z,19.30
2022-12-18T05:55:00.391Z,19.00
2022-12-18T05:57:34.071Z,19.20
2022-12-18T06:00:08.589Z,21.20
2022-12-18T06:02:45.528Z,18.90
2022-12-18T06:05:20.490Z,23.00
2022-12-18T06:07:54.935Z,23.80
2022-12-18T06:10:28.889Z,23.00
2022-12-18T06:13:02.690Z,20.70
2022-12-18T06:15:41.962Z,19.20
2022-12-18T06:18:15.793Z,19.10
2022-12-18T06:20:56.916Z,21.10
2022-12-18T06:23:31.563Z,21.70
2022-12-18T06:26:10.519Z,20.00
2022-12-18T06:28:44.251Z,23.30
2022-12-18T06:33:49.217Z,22.90
2022-12-18T06:38:54.896Z,20.10
2022-12-18T06:44:00.521Z,20.80
2022-12-18T06:46:35.568Z,21.80
2022-12-18T06:49:10.739Z,21.80
2022-12-18T06:51:45.419Z,22.80
2022-12-18T06:54:19.725Z,21.30
2022-12-18T06:56:53.699Z,21.30
2022-12-18T06:59:30.648Z,20.70
2022-12-18T07:02:05.005Z,21.20
2022-12-18T07:04:39.793Z,21.30
2022-12-18T07:07:14.332Z,21.20
2022-12-18T07:09:49.585Z,23.20
2022-12-18T07:12:24.582Z,20.80
2022-12-18T07:15:00.500Z,20.10
2022-12-18T07:17:34.864Z,22.00
2022-12-18T07:20:09.496Z,20.20
2022-12-18T07:22:44.073Z,19.80
2022-12-18T07:25:20.952Z,21.90
2022-12-18T07:27:55.160Z,20.10
2022-12-18T07:30:30.709Z,20.80
2022-12-18T07:33:04.834Z,22.90
2022-12-18T07:35:39.784Z,22.50
2022-12-18T07:38:13.672Z,22.40
2022-12-18T07:40:47.577Z,22.90
2022-12-18T07:43:21.888Z,21.40
2022-12-18T07:45:56.609Z,19.50
2022-12-18T07:48:31.975Z,21.40
2022-12-18T07:51:08.282Z,20.80
2022-12-18T07:53:45.820Z,21.90
2022-12-18T07:56:28.643Z,21.40
2022-12-18T07:59:07.121Z,23.80
2022-12-18T08:01:44.465Z,21.30
2022-12-18T08:04:20.838Z,23.00
2022-12-18T08:06:55.464Z,22.10
2022-12-18T08:09:29.434Z,22.60
2022-12-18T08:12:03.508Z,22.10
2022-12-18T08:17:55.071Z,20.20
2022-12-18T08:20:28.876Z,21.60
2022-12-18T08:23:03.190Z,21.10
2022-12-18T08:25:37.020Z,21.10
2022-12-18T08:28:11.250Z,23.40
2022-12-18T08:30:46.228Z,22.70
2022-12-18T08:33:22.248Z,24.50
2022-12-18T08:35:55.844Z,23.50
2022-12-18T08:38:30.146Z,22.70
2022-12-18T08:41:06.494Z,23.50
2022-12-18T08:43:59.060Z,27.70
2022-12-18T08:46:35.884Z,27.70
2022-12-18T08:49:11.532Z,27.40
2022-12-18T08:51:45.731Z,28.30
2022-12-18T08:54:20.646Z,31.90
2022-12-18T08:56:54.818Z,25.80
2022-12-18T08:59:28.550Z,25.70
2022-12-18T09:02:02.423Z,20.30
2022-12-18T09:04:38.663Z,21.50
2022-12-18T09:07:12.779Z,20.80
2022-12-18T09:09:47.348Z,23.10
2022-12-18T09:12:21.362Z,24.90
2022-12-18T09:14:55.752Z,23.30
2022-12-18T09:17:29.269Z,29.90
2022-12-18T09:20:03.058Z,28.10
2022-12-18T09:22:37.541Z,22.60
2022-12-18T09:25:13.110Z,21.60
2022-12-18T09:27:50.210Z,25.30
2022-12-18T09:30:23.915Z,23.00
2022-12-18T09:33:06.387Z,21.90
2022-12-18T09:35:49.522Z,22.50
2022-12-18T09:38:24.871Z,22.90
2022-12-18T09:41:04.374Z,21.10
2022-12-18T09:43:44.397Z,24.90
2022-12-18T09:46:24.261Z,20.60
2022-12-18T09:49:02.905Z,22.80
2022-12-18T09:51:46.781Z,21.50
2022-12-18T09:54:25.912Z,32.60
2022-12-18T09:57:00.915Z,26.10
2022-12-18T09:59:41.779Z,28.70
2022-12-18T10:02:25.057Z,39.10
2022-12-18T10:05:09.061Z,29.80
2022-12-18T10:07:52.712Z,26.90
2022-12-18T10:10:35.240Z,24.80
2022-12-18T10:13:19.116Z,26.20
2022-12-18T10:16:04.776Z,25.40
2022-12-18T10:19:01.718Z,23.70
2022-12-18T10:21:46.959Z,24.30
2022-12-18T10:24:26.780Z,26.00
2022-12-18T10:27:17.840Z,27.10
2022-12-18T10:30:09.725Z,48.80
2022-12-18T10:32:47.450Z,40.00
2022-12-18T10:35:27.546Z,34.50
2022-12-18T10:38:25.341Z,26.50
2022-12-18T10:41:02.010Z,25.50
2022-12-18T10:43:44.944Z,22.80
2022-12-18T10:46:29.352Z,26.60
2022-12-18T10:49:05.213Z,26.20
2022-12-18T10:51:48.820Z,21.40
2022-12-18T10:54:29.346Z,23.20
2022-12-18T11:00:34.852Z,25.20
2022-12-18T11:03:43.329Z,22.70
2022-12-18T11:06:23.438Z,24.10
2022-12-18T11:09:12.852Z,22.90
2022-12-18T11:11:57.785Z,24.10
2022-12-18T11:14:35.739Z,32.00
2022-12-18T11:17:25.787Z,35.90
2022-12-18T11:20:02.201Z,30.40
2022-12-18T11:22:41.967Z,31.50
2022-12-18T11:25:33.049Z,50.50
2022-12-18T11:28:28.348Z,29.10
2022-12-18T11:31:23.060Z,27.30
2022-12-18T11:37:06.652Z,28.50
2022-12-18T11:39:50.201Z,54.60
2022-12-18T11:42:28.141Z,34.80
2022-12-18T11:45:08.519Z,30.70
2022-12-18T11:47:47.489Z,48.20
2022-12-18T11:50:28.186Z,39.50
2022-12-18T11:53:31.095Z,22.30
2022-12-18T11:56:22.552Z,22.40
2022-12-18T11:59:04.505Z,21.40
2022-12-18T12:01:49.979Z,22.40
2022-12-18T12:05:11.639Z,21.70
2022-12-18T12:07:56.919Z,21.40
2022-12-18T12:10:44.619Z,22.70
2022-12-18T12:13:29.540Z,22.50
2022-12-18T12:16:15.692Z,23.20
2022-12-18T12:19:05.283Z,22.70
2022-12-18T12:21:45.898Z,18.90
2022-12-18T12:24:33.923Z,24.10
2022-12-18T12:27:17.810Z,22.90
2022-12-18T12:30:03.951Z,21.20
2022-12-18T12:32:49.918Z,23.50
2022-12-18T12:35:39.555Z,22.90
2022-12-18T12:38:20.647Z,23.50
2022-12-18T12:41:03.442Z,22.70
2022-12-18T12:43:50.197Z,19.80
2022-12-18T12:46:28.203Z,24.10
2022-12-18T12:49:05.812Z,25.60
2022-12-18T12:51:43.228Z,24.40
2022-12-18T12:54:22.913Z,24.30
2022-12-18T12:57:05.703Z,23.40
2022-12-18T12:59:49.515Z,26.40
2022-12-18T13:02:32.805Z,22.20
2022-12-18T13:05:19.482Z,24.50
2022-12-18T13:07:58.494Z,24.70
2022-12-18T13:10:42.992Z,38.40
2022-12-18T13:13:24.327Z,74.10
2022-12-18T13:16:12.054Z,29.20
2022-12-18T13:18:55.003Z,21.70
2022-12-18T13:21:33.528Z,18.50
2022-12-18T13:24:26.500Z,23.80
2022-12-18T13:27:00.810Z,23.80
2022-12-18T13:29:56.281Z,22.50
2022-12-18T13:32:34.218Z,23.60
2022-12-18T13:35:57.131Z,22.10
2022-12-18T13:38:41.904Z,22.00
2022-12-18T13:41:34.172Z,22.50
2022-12-18T13:44:26.581Z,18.80
2022-12-18T13:47:03.425Z,25.40
2022-12-18T13:49:52.095Z,43.10
2022-12-18T13:52:30.119Z,31.50
2022-12-18T13:55:10.765Z,25.60
2022-12-18T13:57:48.859Z,24.30
2022-12-18T14:00:33.528Z,22.20
2022-12-18T14:03:22.590Z,21.00
2022-12-18T14:06:03.387Z,20.80
2022-12-18T14:08:44.307Z,20.50
2022-12-18T14:11:26.689Z,21.80
2022-12-18T14:14:02.120Z,20.40
2022-12-18T14:16:40.186Z,23.30
2022-12-18T14:19:20.215Z,23.50
2022-12-18T14:21:55.738Z,22.60
2022-12-18T14:24:34.146Z,22.30
2022-12-18T14:27:26.870Z,23.00
2022-12-18T14:30:05.618Z,22.00
2022-12-18T14:32:43.195Z,20.60
2022-12-18T14:35:23.605Z,21.00
2022-12-18T14:38:10.792Z,22.70
2022-12-18T14:40:46.463Z,20.90
2022-12-18T14:43:23.913Z,20.20
2022-12-18T14:45:58.377Z,21.30
2022-12-18T14:48:44.422Z,23.30
2022-12-18T14:51:26.550Z,19.90
2022-12-18T14:54:03.515Z,19.20
2022-12-18T14:56:46.388Z,20.10
2022-12-18T14:59:25.109Z,21.60
2022-12-18T15:02:05.859Z,22.60
2022-12-18T15:04:44.220Z,23.10
2022-12-18T15:07:23.984Z,19.60
2022-12-18T15:10:17.347Z,20.20
2022-12-18T15:13:11.158Z,21.20
2022-12-18T15:15:52.899Z,18.90
2022-12-18T15:18:32.841Z,17.70
2022-12-18T15:21:14.499Z,21.20
2022-12-18T15:23:54.548Z,21.10
2022-12-18T15:26:29.504Z,17.30
2022-12-18T15:29:04.993Z,19.60
2022-12-18T15:31:41.086Z,21.70
2022-12-18T15:34:26.783Z,21.00
2022-12-18T15:37:01.375Z,17.20
2022-12-18T15:39:35.210Z,40.70
2022-12-18T15:42:36.115Z,37.30
2022-12-18T15:45:12.041Z,24.90
2022-12-18T15:47:46.256Z,16.90
2022-12-18T15:50:20.801Z,17.20
2022-12-18T15:52:59.002Z,18.60
2022-12-18T15:55:50.778Z,17.20
2022-12-18T15:58:25.368Z,18.20
2022-12-18T16:01:02.730Z,18.60
2022-12-18T16:03:38.138Z,19.10
2022-12-18T16:06:15.080Z,20.50
2022-12-18T16:08:49.132Z,20.10
2022-12-18T16:14:19.935Z,17.70
2022-12-18T16:16:56.418Z,16.70
2022-12-18T16:19:31.829Z,15.80
2022-12-18T16:22:25.290Z,16.60
2022-12-18T16:24:59.771Z,16.60
2022-12-18T16:27:33.855Z,13.50
2022-12-18T16:30:12.245Z,12.90
2022-12-18T16:32:51.236Z,15.70
2022-12-18T16:35:26.306Z,16.50
2022-12-18T16:38:00.376Z,14.50
2022-12-18T16:40:56.920Z,13.90
2022-12-18T16:43:31.106Z,13.70
2022-12-18T16:46:05.919Z,15.00
2022-12-18T16:48:47.923Z,16.10
2022-12-18T16:51:23.078Z,15.60
2022-12-18T16:53:59.139Z,24.60
2022-12-18T16:56:33.785Z,16.20
2022-12-18T16:59:14.900Z,14.80
2022-12-18T17:01:54.123Z,13.90
2022-12-18T17:04:28.951Z,15.10
2022-12-18T17:07:05.410Z,13.10
2022-12-18T17:09:40.385Z,17.10
2022-12-18T17:12:14.545Z,16.70
2022-12-18T17:14:49.020Z,25.20
2022-12-18T17:17:23.950Z,15.00
2022-12-18T17:19:58.914Z,15.10
2022-12-18T17:22:39.005Z,16.90
2022-12-18T17:25:17.540Z,16.30
2022-12-18T17:27:52.730Z,15.10
2022-12-18T17:30:26.765Z,15.80
2022-12-18T17:33:01.325Z,14.70
2022-12-18T17:35:39.388Z,14.30
2022-12-18T17:38:13.647Z,15.90
2022-12-18T17:43:21.399Z,15.80
2022-12-18T17:45:57.699Z,15.90
2022-12-18T17:48:35.823Z,14.70
2022-12-18T17:51:12.540Z,16.30
2022-12-18T17:53:47.294Z,37.20
2022-12-18T17:56:23.304Z,17.00
2022-12-18T17:58:59.321Z,14.00
2022-12-18T18:01:33.540Z,14.80
2022-12-18T18:04:08.372Z,14.50
2022-12-18T18:06:42.234Z,13.40
2022-12-18T18:09:17.090Z,20.00
2022-12-18T18:12:08.365Z,15.10
2022-12-18T18:14:42.380Z,15.20
2022-12-18T18:17:16.736Z,15.30
2022-12-18T18:19:50.772Z,14.50
2022-12-18T18:22:26.652Z,15.10
2022-12-18T18:25:01.147Z,14.10
2022-12-18T18:27:40.353Z,21.30
2022-12-18T18:30:20.638Z,17.70
2022-12-18T18:32:57.424Z,16.30
2022-12-18T18:35:53.279Z,16.50
2022-12-18T18:38:31.149Z,16.30
2022-12-18T18:41:09.650Z,17.20
2022-12-18T18:43:45.280Z,14.90
2022-12-18T18:46:24.610Z,14.10
2022-12-18T18:49:05.042Z,13.40
2022-12-18T18:51:41.419Z,14.70
2022-12-18T18:54:17.609Z,14.90
2022-12-18T18:57:19.380Z,15.50
2022-12-18T18:59:59.163Z,14.80
2022-12-18T19:02:34.415Z,16.20
2022-12-18T19:05:12.650Z,15.80
2022-12-18T19:07:50.590Z,14.80
2022-12-18T19:10:30.681Z,18.30
2022-12-18T19:13:25.395Z,15.40
2022-12-18T19:16:06.824Z,16.20
2022-12-18T19:18:41.657Z,15.90
2022-12-18T19:21:23.421Z,16.80
2022-12-18T19:24:04.933Z,14.30
2022-12-18T19:26:44.481Z,17.10
2022-12-18T19:29:23.442Z,16.80
2022-12-18T19:32:10.852Z,15.40
2022-12-18T19:34:55.408Z,15.60
2022-12-18T19:37:39.506Z,12.60
2022-12-18T19:40:20.093Z,17.50
2022-12-18T19:42:54.941Z,17.00
2022-12-18T19:45:29.304Z,14.40
2022-12-18T19:48:06.602Z,14.70
2022-12-18T19:50:46.653Z,16.00
2022-12-18T19:53:25.510Z,15.20
2022-12-18T19:56:01.292Z,15.00
2022-12-18T19:58:37.010Z,16.60
2022-12-18T20:01:18.833Z,15.60
2022-12-18T20:04:01.180Z,14.10
2022-12-18T20:06:40.659Z,17.20
2022-12-18T20:09:26.747Z,16.30
2022-12-18T20:12:43.099Z,15.40
2022-12-18T20:15:47.985Z,16.30
2022-12-18T20:18:34.610Z,13.00
2022-12-18T20:21:14.346Z,15.30
2022-12-18T20:23:49.961Z,15.90
2022-12-18T20:26:24.071Z,14.50
2022-12-18T20:28:58.708Z,15.70
2022-12-18T20:31:32.983Z,15.40
2022-12-18T20:34:08.299Z,13.40
2022-12-18T20:36:43.942Z,18.20
2022-12-18T20:39:19.240Z,14.80
2022-12-18T20:41:54.897Z,15.00
2022-12-18T20:44:29.777Z,14.60
2022-12-18T20:47:08.647Z,16.00
2022-12-18T20:49:45.355Z,17.30
2022-12-18T20:52:19.685Z,17.10
2022-12-18T20:54:55.687Z,16.60
2022-12-18T20:57:31.210Z,16.30
2022-12-18T21:00:05.382Z,15.00
2022-12-18T21:02:40.048Z,18.00
2022-12-18T21:05:14.843Z,19.00
2022-12-18T21:07:49.581Z,15.90
2022-12-18T21:10:23.769Z,19.10
2022-12-18T21:13:03.199Z,20.60
2022-12-18T21:15:40.893Z,26.00
2022-12-18T21:18:15.339Z,22.40
2022-12-18T21:20:50.653Z,20.50
2022-12-18T21:23:26.158Z,22.70
2022-12-18T21:26:19.671Z,19.70
2022-12-18T21:28:57.651Z,20.10
2022-12-18T21:31:33.135Z,18.50
2022-12-18T21:34:08.320Z,19.40
2022-12-18T21:36:42.330Z,20.90
2022-12-18T21:39:16.501Z,23.00
2022-12-18T21:42:08.148Z,22.10
2022-12-18T21:44:42.651Z,22.20
2022-12-18T21:47:21.696Z,24.10
2022-12-18T21:49:56.845Z,27.60
2022-12-18T21:52:34.198Z,29.10
2022-12-18T21:55:10.346Z,31.30
2022-12-18T21:57:45.835Z,28.00
2022-12-18T22:00:24.279Z,35.10
2022-12-18T22:03:15.573Z,37.20
2022-12-18T22:06:07.542Z,36.30
2022-12-18T22:08:44.197Z,36.20
2022-12-18T22:11:18.821Z,39.20
2022-12-18T22:13:54.574Z,32.90
2022-12-18T22:16:28.840Z,38.90
2022-12-18T22:19:04.009Z,37.90
2022-12-18T22:21:39.841Z,40.60
2022-12-18T22:24:18.102Z,41.30
2022-12-18T22:27:02.112Z,41.30
2022-12-18T22:29:55.156Z,44.30
2022-12-18T22:32:31.747Z,43.20
2022-12-18T22:35:14.157Z,39.60
2022-12-18T22:37:49.448Z,41.00
2022-12-18T22:40:35.234Z,38.50
2022-12-18T22:43:09.609Z,35.10
2022-12-18T22:45:48.113Z,39.20
2022-12-18T22:48:22.338Z,38.70
2022-12-18T22:50:59.496Z,31.90
2022-12-18T22:53:33.642Z,37.10
2022-12-18T22:58:39.725Z,33.80
2022-12-18T23:01:23.144Z,37.20
2022-12-18T23:03:58.679Z,28.60
2022-12-18T23:06:33.347Z,32.60
2022-12-18T23:09:07.789Z,35.50
2022-12-18T23:11:44.130Z,28.50
2022-12-18T23:14:18.399Z,30.90
2022-12-18T23:16:53.142Z,31.90
2022-12-18T23:19:32.421Z,32.50
2022-12-18T23:22:11.806Z,33.80
2022-12-18T23:24:46.433Z,35.30
2022-12-18T23:27:20.507Z,34.10
2022-12-18T23:29:54.877Z,30.20
2022-12-18T23:32:30.041Z,31.60
2022-12-18T23:35:06.302Z,32.40
2022-12-18T23:37:59.485Z,30.30
2022-12-18T23:40:34.292Z,29.10
2022-12-18T23:43:08.564Z,26.60
2022-12-18T23:45:43.399Z,32.40
2022-12-18T23:48:16.825Z,32.60
2022-12-18T23:50:50.724Z,27.60
2022-12-18T23:53:24.956Z,29.20
2022-12-18T23:55:58.830Z,31.00
2022-12-18T23:58:34.929Z,27.70
